sensor_id;sensor_type;location;lat;lon;timestamp;P1;durP1;ratioP1;P2;durP2;ratioP2
79064;SDS011;68469;51.502;7.462;2023-09-30T00:00:46;17.63;;;6.65;;
79064;SDS011;68469;51.502;7.462;2023-09-30T00:03:12;12.02;;;6.32;;
79064;SDS011;68469;51.502;7.462;2023-09-30T00:05:37;16.48;;;6.00;;
79064;SDS011;68469;51.502;7.462;2023-09-30T00:08:03;15.73;;;6.38;;
79064;SDS011;68469;51.502;7.462;2023-09-30T00:10:30;12.68;;;5.78;;
79064;SDS011;68469;51.502;7.462;2023-09-30T00:12:56;16.10;;;5.85;;
79064;SDS011;68469;51.502;7.462;2023-09-30T00:15:22;13.25;;;5.30;;
79064;SDS011;68469;51.502;7.462;2023-09-30T00:17:47;18.33;;;6.78;;
79064;SDS011;68469;51.502;7.462;2023-09-30T00:20:14;15.23;;;6.55;;
79064;SDS011;68469;51.502;7.462;2023-09-30T00:22:42;12.55;;;5.82;;
79064;SDS011;68469;51.502;7.462;2023-09-30T00:25:08;15.13;;;6.28;;
79064;SDS011;68469;51.502;7.462;2023-09-30T00:27:35;14.63;;;6.65;;
79064;SDS011;68469;51.502;7.462;2023-09-30T00:30:01;16.60;;;6.93;;
79064;SDS011;68469;51.502;7.462;2023-09-30T00:32:26;18.25;;;5.88;;
79064;SDS011;68469;51.502;7.462;2023-09-30T00:34:53;16.80;;;7.22;;
79064;SDS011;68469;51.502;7.462;2023-09-30T00:37:19;18.58;;;6.65;;
79064;SDS011;68469;51.502;7.462;2023-09-30T00:39:45;13.10;;;6.07;;
79064;SDS011;68469;51.502;7.462;2023-09-30T00:42:11;14.65;;;6.15;;
79064;SDS011;68469;51.502;7.462;2023-09-30T00:44:37;11.15;;;6.03;;
79064;SDS011;68469;51.502;7.462;2023-09-30T00:47:02;14.90;;;6.18;;
79064;SDS011;68469;51.502;7.462;2023-09-30T00:49:29;19.30;;;6.55;;
79064;SDS011;68469;51.502;7.462;2023-09-30T00:51:55;15.00;;;5.90;;
79064;SDS011;68469;51.502;7.462;2023-09-30T00:54:22;13.05;;;6.80;;
79064;SDS011;68469;51.502;7.462;2023-09-30T00:56:50;16.70;;;6.18;;
79064;SDS011;68469;51.502;7.462;2023-09-30T00:59:20;15.07;;;5.88;;
79064;SDS011;68469;51.502;7.462;2023-09-30T01:01:46;15.13;;;5.50;;
79064;SDS011;68469;51.502;7.462;2023-09-30T01:04:12;14.60;;;6.00;;
79064;SDS011;68469;51.502;7.462;2023-09-30T01:06:38;16.70;;;5.93;;
79064;SDS011;68469;51.502;7.462;2023-09-30T01:09:04;11.80;;;5.60;;
79064;SDS011;68469;51.502;7.462;2023-09-30T01:11:30;17.38;;;6.03;;
79064;SDS011;68469;51.502;7.462;2023-09-30T01:13:56;21.42;;;6.80;;
79064;SDS011;68469;51.502;7.462;2023-09-30T01:16:22;12.95;;;5.93;;
79064;SDS011;68469;51.502;7.462;2023-09-30T01:18:48;19.35;;;6.32;;
79064;SDS011;68469;51.502;7.462;2023-09-30T01:21:14;17.48;;;6.30;;
79064;SDS011;68469;51.502;7.462;2023-09-30T01:23:39;11.48;;;5.53;;
79064;SDS011;68469;51.502;7.462;2023-09-30T01:26:06;16.80;;;5.90;;
79064;SDS011;68469;51.502;7.462;2023-09-30T01:28:34;12.40;;;5.45;;
79064;SDS011;68469;51.502;7.462;2023-09-30T01:31:00;16.58;;;6.60;;
79064;SDS011;68469;51.502;7.462;2023-09-30T01:33:26;15.82;;;6.43;;
79064;SDS011;68469;51.502;7.462;2023-09-30T01:35:52;15.13;;;5.68;;
79064;SDS011;68469;51.502;7.462;2023-09-30T01:38:18;19.23;;;6.97;;
79064;SDS011;68469;51.502;7.462;2023-09-30T01:40:43;18.80;;;7.47;;
79064;SDS011;68469;51.502;7.462;2023-09-30T01:43:09;16.05;;;6.10;;
79064;SDS011;68469;51.502;7.462;2023-09-30T01:45:38;15.15;;;6.13;;
79064;SDS011;68469;51.502;7.462;2023-09-30T01:48:05;21.15;;;6.95;;
79064;SDS011;68469;51.502;7.462;2023-09-30T01:50:31;14.50;;;7.20;;
79064;SDS011;68469;51.502;7.462;2023-09-30T01:52:56;18.05;;;6.38;;
79064;SDS011;68469;51.502;7.462;2023-09-30T01:55:22;16.98;;;5.82;;
79064;SDS011;68469;51.502;7.462;2023-09-30T01:57:48;15.40;;;6.57;;
79064;SDS011;68469;51.502;7.462;2023-09-30T02:00:13;19.98;;;6.43;;
79064;SDS011;68469;51.502;7.462;2023-09-30T02:02:39;17.75;;;6.30;;
79064;SDS011;68469;51.502;7.462;2023-09-30T02:05:05;15.18;;;5.93;;
79064;SDS011;68469;51.502;7.462;2023-09-30T02:07:33;17.52;;;5.80;;
79064;SDS011;68469;51.502;7.462;2023-09-30T02:09:59;16.67;;;6.38;;
79064;SDS011;68469;51.502;7.462;2023-09-30T02:12:26;16.25;;;5.95;;
79064;SDS011;68469;51.502;7.462;2023-09-30T02:14:53;17.65;;;5.82;;
79064;SDS011;68469;51.502;7.462;2023-09-30T02:17:19;15.63;;;6.47;;
79064;SDS011;68469;51.502;7.462;2023-09-30T02:19:44;19.20;;;6.72;;
79064;SDS011;68469;51.502;7.462;2023-09-30T02:22:10;15.77;;;6.55;;
79064;SDS011;68469;51.502;7.462;2023-09-30T02:24:37;13.20;;;5.20;;
79064;SDS011;68469;51.502;7.462;2023-09-30T02:27:05;14.60;;;5.95;;
79064;SDS011;68469;51.502;7.462;2023-09-30T02:29:30;16.70;;;5.95;;
79064;SDS011;68469;51.502;7.462;2023-09-30T02:31:56;18.63;;;6.68;;
79064;SDS011;68469;51.502;7.462;2023-09-30T02:34:22;14.55;;;6.53;;
79064;SDS011;68469;51.502;7.462;2023-09-30T02:36:49;21.85;;;6.65;;
79064;SDS011;68469;51.502;7.462;2023-09-30T02:39:14;18.60;;;6.68;;
79064;SDS011;68469;51.502;7.462;2023-09-30T02:41:41;15.68;;;5.63;;
79064;SDS011;68469;51.502;7.462;2023-09-30T02:44:07;19.88;;;6.30;;
79064;SDS011;68469;51.502;7.462;2023-09-30T02:46:33;16.40;;;6.80;;
79064;SDS011;68469;51.502;7.462;2023-09-30T02:49:00;17.02;;;6.10;;
79064;SDS011;68469;51.502;7.462;2023-09-30T02:51:26;19.67;;;7.07;;
79064;SDS011;68469;51.502;7.462;2023-09-30T02:53:53;17.63;;;6.20;;
79064;SDS011;68469;51.502;7.462;2023-09-30T02:56:18;21.65;;;6.63;;
79064;SDS011;68469;51.502;7.462;2023-09-30T02:58:45;16.08;;;6.10;;
79064;SDS011;68469;51.502;7.462;2023-09-30T03:01:13;14.27;;;5.93;;
79064;SDS011;68469;51.502;7.462;2023-09-30T03:03:41;17.92;;;6.13;;
79064;SDS011;68469;51.502;7.462;2023-09-30T03:06:09;20.15;;;7.22;;
79064;SDS011;68469;51.502;7.462;2023-09-30T03:08:35;13.27;;;5.70;;
79064;SDS011;68469;51.502;7.462;2023-09-30T03:11:01;26.50;;;6.22;;
79064;SDS011;68469;51.502;7.462;2023-09-30T03:13:27;19.33;;;6.70;;
79064;SDS011;68469;51.502;7.462;2023-09-30T03:15:53;13.63;;;5.72;;
79064;SDS011;68469;51.502;7.462;2023-09-30T03:18:18;14.90;;;5.60;;
79064;SDS011;68469;51.502;7.462;2023-09-30T03:20:51;14.40;;;5.40;;
79064;SDS011;68469;51.502;7.462;2023-09-30T03:23:27;19.33;;;6.25;;
79064;SDS011;68469;51.502;7.462;2023-09-30T03:25:59;16.58;;;6.38;;
79064;SDS011;68469;51.502;7.462;2023-09-30T03:28:25;19.70;;;5.97;;
79064;SDS011;68469;51.502;7.462;2023-09-30T03:30:51;14.85;;;6.35;;
79064;SDS011;68469;51.502;7.462;2023-09-30T03:33:17;12.10;;;5.38;;
79064;SDS011;68469;51.502;7.462;2023-09-30T03:35:43;18.25;;;5.63;;
79064;SDS011;68469;51.502;7.462;2023-09-30T03:38:09;17.27;;;5.25;;
79064;SDS011;68469;51.502;7.462;2023-09-30T03:40:35;17.88;;;5.78;;
79064;SDS011;68469;51.502;7.462;2023-09-30T03:43:03;13.48;;;4.90;;
79064;SDS011;68469;51.502;7.462;2023-09-30T03:45:32;15.10;;;5.55;;
79064;SDS011;68469;51.502;7.462;2023-09-30T03:47:58;15.63;;;6.20;;
79064;SDS011;68469;51.502;7.462;2023-09-30T03:50:23;16.05;;;5.82;;
79064;SDS011;68469;51.502;7.462;2023-09-30T03:52:49;18.20;;;5.78;;
79064;SDS011;68469;51.502;7.462;2023-09-30T03:55:16;11.63;;;4.55;;
79064;SDS011;68469;51.502;7.462;2023-09-30T03:57:43;13.43;;;4.78;;
79064;SDS011;68469;51.502;7.462;2023-09-30T04:00:13;11.40;;;4.32;;
79064;SDS011;68469;51.502;7.462;2023-09-30T04:02:42;13.13;;;4.85;;
79064;SDS011;68469;51.502;7.462;2023-09-30T04:05:08;11.48;;;4.53;;
79064;SDS011;68469;51.502;7.462;2023-09-30T04:07:39;14.30;;;4.97;;
79064;SDS011;68469;51.502;7.462;2023-09-30T04:10:07;14.15;;;4.53;;
79064;SDS011;68469;51.502;7.462;2023-09-30T04:12:33;19.30;;;5.50;;
79064;SDS011;68469;51.502;7.462;2023-09-30T04:14:59;14.07;;;4.85;;
79064;SDS011;68469;51.502;7.462;2023-09-30T04:17:25;18.95;;;5.30;;
79064;SDS011;68469;51.502;7.462;2023-09-30T04:19:52;13.35;;;4.85;;
79064;SDS011;68469;51.502;7.462;2023-09-30T04:22:18;13.73;;;4.75;;
79064;SDS011;68469;51.502;7.462;2023-09-30T04:24:44;17.85;;;4.93;;
79064;SDS011;68469;51.502;7.462;2023-09-30T04:27:10;13.77;;;5.07;;
79064;SDS011;68469;51.502;7.462;2023-09-30T04:29:36;13.05;;;4.97;;
79064;SDS011;68469;51.502;7.462;2023-09-30T04:32:01;15.10;;;4.55;;
79064;SDS011;68469;51.502;7.462;2023-09-30T04:34:28;12.30;;;4.72;;
79064;SDS011;68469;51.502;7.462;2023-09-30T04:36:53;15.88;;;5.38;;
79064;SDS011;68469;51.502;7.462;2023-09-30T04:39:19;15.30;;;4.85;;
79064;SDS011;68469;51.502;7.462;2023-09-30T04:41:45;17.08;;;4.93;;
79064;SDS011;68469;51.502;7.462;2023-09-30T04:44:12;14.07;;;4.63;;
79064;SDS011;68469;51.502;7.462;2023-09-30T04:46:37;15.82;;;5.30;;
79064;SDS011;68469;51.502;7.462;2023-09-30T04:49:10;18.35;;;5.18;;
79064;SDS011;68469;51.502;7.462;2023-09-30T04:51:39;16.05;;;5.07;;
79064;SDS011;68469;51.502;7.462;2023-09-30T04:54:05;14.05;;;5.05;;
79064;SDS011;68469;51.502;7.462;2023-09-30T04:56:33;12.00;;;4.75;;
79064;SDS011;68469;51.502;7.462;2023-09-30T04:59:00;12.18;;;4.38;;
79064;SDS011;68469;51.502;7.462;2023-09-30T05:01:26;13.50;;;4.90;;
79064;SDS011;68469;51.502;7.462;2023-09-30T05:03:51;18.15;;;4.13;;
79064;SDS011;68469;51.502;7.462;2023-09-30T05:06:18;13.57;;;4.88;;
79064;SDS011;68469;51.502;7.462;2023-09-30T05:08:44;10.07;;;4.63;;
79064;SDS011;68469;51.502;7.462;2023-09-30T05:11:09;15.35;;;4.50;;
79064;SDS011;68469;51.502;7.462;2023-09-30T05:13:35;11.73;;;4.80;;
79064;SDS011;68469;51.502;7.462;2023-09-30T05:16:01;17.17;;;4.55;;
79064;SDS011;68469;51.502;7.462;2023-09-30T05:18:28;12.35;;;4.35;;
79064;SDS011;68469;51.502;7.462;2023-09-30T05:20:54;14.30;;;5.15;;
79064;SDS011;68469;51.502;7.462;2023-09-30T05:23:20;14.70;;;4.40;;
79064;SDS011;68469;51.502;7.462;2023-09-30T05:25:46;14.90;;;5.30;;
79064;SDS011;68469;51.502;7.462;2023-09-30T05:28:11;13.13;;;4.50;;
79064;SDS011;68469;51.502;7.462;2023-09-30T05:30:38;19.50;;;5.20;;
79064;SDS011;68469;51.502;7.462;2023-09-30T05:33:05;11.45;;;4.45;;
79064;SDS011;68469;51.502;7.462;2023-09-30T05:35:32;14.35;;;4.43;;
79064;SDS011;68469;51.502;7.462;2023-09-30T05:37:57;14.52;;;4.25;;
79064;SDS011;68469;51.502;7.462;2023-09-30T05:40:23;14.50;;;4.10;;
79064;SDS011;68469;51.502;7.462;2023-09-30T05:42:52;14.82;;;4.38;;
79064;SDS011;68469;51.502;7.462;2023-09-30T05:45:18;12.57;;;4.72;;
79064;SDS011;68469;51.502;7.462;2023-09-30T05:47:44;14.07;;;4.95;;
79064;SDS011;68469;51.502;7.462;2023-09-30T05:50:10;11.93;;;3.88;;
79064;SDS011;68469;51.502;7.462;2023-09-30T05:52:41;16.30;;;4.90;;
79064;SDS011;68469;51.502;7.462;2023-09-30T05:55:07;11.30;;;4.10;;
79064;SDS011;68469;51.502;7.462;2023-09-30T05:57:33;12.43;;;5.03;;
79064;SDS011;68469;51.502;7.462;2023-09-30T06:00:00;11.77;;;4.28;;
79064;SDS011;68469;51.502;7.462;2023-09-30T06:02:26;12.73;;;4.75;;
79064;SDS011;68469;51.502;7.462;2023-09-30T06:04:52;14.00;;;4.53;;
79064;SDS011;68469;51.502;7.462;2023-09-30T06:07:18;11.20;;;4.03;;
79064;SDS011;68469;51.502;7.462;2023-09-30T06:09:45;17.40;;;5.20;;
79064;SDS011;68469;51.502;7.462;2023-09-30T06:12:13;14.80;;;5.25;;
79064;SDS011;68469;51.502;7.462;2023-09-30T06:14:38;14.38;;;4.93;;
79064;SDS011;68469;51.502;7.462;2023-09-30T06:17:05;14.65;;;5.25;;
79064;SDS011;68469;51.502;7.462;2023-09-30T06:19:32;11.98;;;4.78;;
79064;SDS011;68469;51.502;7.462;2023-09-30T06:21:57;11.18;;;4.40;;
79064;SDS011;68469;51.502;7.462;2023-09-30T06:24:23;17.10;;;4.90;;
79064;SDS011;68469;51.502;7.462;2023-09-30T06:26:49;12.52;;;4.18;;
79064;SDS011;68469;51.502;7.462;2023-09-30T06:29:15;11.35;;;4.40;;
79064;SDS011;68469;51.502;7.462;2023-09-30T06:31:40;13.60;;;3.88;;
79064;SDS011;68469;51.502;7.462;2023-09-30T06:34:06;12.18;;;4.03;;
79064;SDS011;68469;51.502;7.462;2023-09-30T06:36:32;11.93;;;4.28;;
79064;SDS011;68469;51.502;7.462;2023-09-30T06:38:57;18.48;;;5.20;;
79064;SDS011;68469;51.502;7.462;2023-09-30T06:41:23;13.18;;;4.45;;
79064;SDS011;68469;51.502;7.462;2023-09-30T06:43:50;17.55;;;4.18;;
79064;SDS011;68469;51.502;7.462;2023-09-30T06:46:17;11.27;;;4.38;;
79064;SDS011;68469;51.502;7.462;2023-09-30T06:48:43;12.75;;;4.22;;
79064;SDS011;68469;51.502;7.462;2023-09-30T06:51:17;11.80;;;4.10;;
79064;SDS011;68469;51.502;7.462;2023-09-30T06:53:43;18.80;;;5.40;;
79064;SDS011;68469;51.502;7.462;2023-09-30T06:56:10;14.85;;;4.68;;
79064;SDS011;68469;51.502;7.462;2023-09-30T06:58:37;11.15;;;4.85;;
79064;SDS011;68469;51.502;7.462;2023-09-30T07:01:03;15.02;;;5.00;;
79064;SDS011;68469;51.502;7.462;2023-09-30T07:03:29;15.73;;;5.15;;
79064;SDS011;68469;51.502;7.462;2023-09-30T07:05:55;16.45;;;5.40;;
79064;SDS011;68469;51.502;7.462;2023-09-30T07:08:21;14.68;;;5.03;;
79064;SDS011;68469;51.502;7.462;2023-09-30T07:10:47;17.08;;;5.28;;
79064;SDS011;68469;51.502;7.462;2023-09-30T07:13:17;14.82;;;4.53;;
79064;SDS011;68469;51.502;7.462;2023-09-30T07:15:43;13.90;;;5.03;;
79064;SDS011;68469;51.502;7.462;2023-09-30T07:18:09;17.80;;;5.57;;
79064;SDS011;68469;51.502;7.462;2023-09-30T07:20:34;12.20;;;4.57;;
79064;SDS011;68469;51.502;7.462;2023-09-30T07:23:00;11.02;;;4.40;;
79064;SDS011;68469;51.502;7.462;2023-09-30T07:25:28;12.25;;;4.63;;
79064;SDS011;68469;51.502;7.462;2023-09-30T07:27:56;14.68;;;5.22;;
79064;SDS011;68469;51.502;7.462;2023-09-30T07:30:23;15.88;;;5.10;;
79064;SDS011;68469;51.502;7.462;2023-09-30T07:32:49;14.38;;;4.68;;
79064;SDS011;68469;51.502;7.462;2023-09-30T07:35:15;10.73;;;4.80;;
79064;SDS011;68469;51.502;7.462;2023-09-30T07:37:41;11.25;;;4.15;;
79064;SDS011;68469;51.502;7.462;2023-09-30T07:40:07;20.08;;;4.90;;
79064;SDS011;68469;51.502;7.462;2023-09-30T07:42:38;12.77;;;4.50;;
79064;SDS011;68469;51.502;7.462;2023-09-30T07:45:03;12.95;;;4.68;;
79064;SDS011;68469;51.502;7.462;2023-09-30T07:47:30;13.73;;;4.47;;
79064;SDS011;68469;51.502;7.462;2023-09-30T07:49:57;13.25;;;4.82;;
79064;SDS011;68469;51.502;7.462;2023-09-30T07:52:23;14.95;;;4.70;;
79064;SDS011;68469;51.502;7.462;2023-09-30T07:54:51;17.25;;;5.60;;
79064;SDS011;68469;51.502;7.462;2023-09-30T07:57:16;13.80;;;4.68;;
79064;SDS011;68469;51.502;7.462;2023-09-30T07:59:42;12.15;;;4.70;;
79064;SDS011;68469;51.502;7.462;2023-09-30T08:02:07;11.18;;;4.32;;
79064;SDS011;68469;51.502;7.462;2023-09-30T08:04:33;11.85;;;4.30;;
79064;SDS011;68469;51.502;7.462;2023-09-30T08:06:59;16.45;;;4.43;;
79064;SDS011;68469;51.502;7.462;2023-09-30T08:09:24;11.15;;;4.57;;
79064;SDS011;68469;51.502;7.462;2023-09-30T08:11:52;14.23;;;4.80;;
79064;SDS011;68469;51.502;7.462;2023-09-30T08:14:18;14.43;;;4.47;;
79064;SDS011;68469;51.502;7.462;2023-09-30T08:16:44;13.80;;;4.43;;
79064;SDS011;68469;51.502;7.462;2023-09-30T08:19:10;11.32;;;4.63;;
79064;SDS011;68469;51.502;7.462;2023-09-30T08:21:35;12.57;;;4.10;;
79064;SDS011;68469;51.502;7.462;2023-09-30T08:24:02;11.60;;;4.38;;
79064;SDS011;68469;51.502;7.462;2023-09-30T08:26:27;11.23;;;4.40;;
79064;SDS011;68469;51.502;7.462;2023-09-30T08:28:53;14.02;;;4.78;;
79064;SDS011;68469;51.502;7.462;2023-09-30T08:31:19;11.85;;;4.65;;
79064;SDS011;68469;51.502;7.462;2023-09-30T08:33:46;9.43;;;5.03;;
79064;SDS011;68469;51.502;7.462;2023-09-30T08:36:12;11.65;;;4.60;;
79064;SDS011;68469;51.502;7.462;2023-09-30T08:38:39;10.10;;;4.43;;
79064;SDS011;68469;51.502;7.462;2023-09-30T08:41:05;12.43;;;3.78;;
79064;SDS011;68469;51.502;7.462;2023-09-30T08:43:39;12.15;;;4.00;;
79064;SDS011;68469;51.502;7.462;2023-09-30T08:46:05;9.65;;;3.92;;
79064;SDS011;68469;51.502;7.462;2023-09-30T08:48:32;7.10;;;3.55;;
79064;SDS011;68469;51.502;7.462;2023-09-30T08:50:59;13.23;;;4.70;;
79064;SDS011;68469;51.502;7.462;2023-09-30T08:53:25;8.57;;;3.53;;
79064;SDS011;68469;51.502;7.462;2023-09-30T08:55:54;9.73;;;4.70;;
79064;SDS011;68469;51.502;7.462;2023-09-30T08:58:26;11.75;;;4.95;;
79064;SDS011;68469;51.502;7.462;2023-09-30T09:00:54;11.85;;;4.63;;
79064;SDS011;68469;51.502;7.462;2023-09-30T09:03:20;11.68;;;4.45;;
79064;SDS011;68469;51.502;7.462;2023-09-30T09:05:46;7.22;;;3.72;;
79064;SDS011;68469;51.502;7.462;2023-09-30T09:08:19;10.32;;;4.30;;
79064;SDS011;68469;51.502;7.462;2023-09-30T09:10:58;9.88;;;3.88;;
79064;SDS011;68469;51.502;7.462;2023-09-30T09:13:25;7.97;;;3.72;;
79064;SDS011;68469;51.502;7.462;2023-09-30T09:16:09;9.60;;;3.47;;
79064;SDS011;68469;51.502;7.462;2023-09-30T09:18:35;11.45;;;4.30;;
79064;SDS011;68469;51.502;7.462;2023-09-30T09:21:15;9.07;;;2.78;;
79064;SDS011;68469;51.502;7.462;2023-09-30T09:23:45;11.18;;;4.05;;
79064;SDS011;68469;51.502;7.462;2023-09-30T09:28:58;9.48;;;3.45;;
79064;SDS011;68469;51.502;7.462;2023-09-30T09:31:28;7.57;;;3.28;;
79064;SDS011;68469;51.502;7.462;2023-09-30T09:33:55;6.82;;;3.15;;
79064;SDS011;68469;51.502;7.462;2023-09-30T09:36:21;10.50;;;3.78;;
79064;SDS011;68469;51.502;7.462;2023-09-30T09:39:02;11.02;;;3.40;;
79064;SDS011;68469;51.502;7.462;2023-09-30T09:41:28;7.38;;;3.15;;
79064;SDS011;68469;51.502;7.462;2023-09-30T09:43:53;9.85;;;4.15;;
79064;SDS011;68469;51.502;7.462;2023-09-30T09:46:21;10.55;;;3.63;;
79064;SDS011;68469;51.502;7.462;2023-09-30T09:48:47;7.95;;;3.60;;
79064;SDS011;68469;51.502;7.462;2023-09-30T09:51:13;10.05;;;3.33;;
79064;SDS011;68469;51.502;7.462;2023-09-30T09:53:40;7.50;;;3.28;;
79064;SDS011;68469;51.502;7.462;2023-09-30T09:56:09;7.75;;;2.92;;
79064;SDS011;68469;51.502;7.462;2023-09-30T09:58:35;7.55;;;2.58;;
79064;SDS011;68469;51.502;7.462;2023-09-30T10:01:04;8.50;;;3.33;;
79064;SDS011;68469;51.502;7.462;2023-09-30T10:03:31;9.27;;;3.10;;
79064;SDS011;68469;51.502;7.462;2023-09-30T10:05:57;8.02;;;2.67;;
79064;SDS011;68469;51.502;7.462;2023-09-30T10:08:31;8.07;;;2.63;;
79064;SDS011;68469;51.502;7.462;2023-09-30T10:11:01;10.90;;;3.78;;
79064;SDS011;68469;51.502;7.462;2023-09-30T10:19:09;8.73;;;3.35;;
79064;SDS011;68469;51.502;7.462;2023-09-30T10:21:35;6.88;;;2.92;;
79064;SDS011;68469;51.502;7.462;2023-09-30T10:24:34;8.40;;;3.42;;
79064;SDS011;68469;51.502;7.462;2023-09-30T10:35:16;7.55;;;3.47;;
79064;SDS011;68469;51.502;7.462;2023-09-30T10:37:43;9.40;;;3.35;;
79064;SDS011;68469;51.502;7.462;2023-09-30T10:40:09;11.32;;;3.10;;
79064;SDS011;68469;51.502;7.462;2023-09-30T10:42:50;7.97;;;2.17;;
79064;SDS011;68469;51.502;7.462;2023-09-30T10:50:59;10.88;;;3.13;;
79064;SDS011;68469;51.502;7.462;2023-09-30T10:53:52;6.03;;;2.30;;
79064;SDS011;68469;51.502;7.462;2023-09-30T10:56:26;6.25;;;2.53;;
79064;SDS011;68469;51.502;7.462;2023-09-30T11:01:24;6.60;;;2.78;;
79064;SDS011;68469;51.502;7.462;2023-09-30T11:03:50;5.35;;;2.13;;
79064;SDS011;68469;51.502;7.462;2023-09-30T11:06:24;5.68;;;2.20;;
79064;SDS011;68469;51.502;7.462;2023-09-30T11:11:21;3.88;;;2.08;;
79064;SDS011;68469;51.502;7.462;2023-09-30T11:14:03;6.07;;;2.53;;
79064;SDS011;68469;51.502;7.462;2023-09-30T11:16:39;6.75;;;2.50;;
79064;SDS011;68469;51.502;7.462;2023-09-30T11:19:06;5.45;;;2.45;;
79064;SDS011;68469;51.502;7.462;2023-09-30T11:21:33;4.97;;;2.25;;
79064;SDS011;68469;51.502;7.462;2023-09-30T11:24:00;6.63;;;2.58;;
79064;SDS011;68469;51.502;7.462;2023-09-30T11:26:32;5.20;;;2.20;;
79064;SDS011;68469;51.502;7.462;2023-09-30T11:29:09;7.50;;;2.70;;
79064;SDS011;68469;51.502;7.462;2023-09-30T11:31:38;6.65;;;2.85;;
79064;SDS011;68469;51.502;7.462;2023-09-30T11:34:04;7.35;;;2.90;;
79064;SDS011;68469;51.502;7.462;2023-09-30T11:36:31;7.13;;;2.30;;
79064;SDS011;68469;51.502;7.462;2023-09-30T11:38:59;5.72;;;2.40;;
79064;SDS011;68469;51.502;7.462;2023-09-30T11:41:35;7.60;;;2.85;;
79064;SDS011;68469;51.502;7.462;2023-09-30T11:44:07;5.78;;;2.58;;
79064;SDS011;68469;51.502;7.462;2023-09-30T11:49:24;7.00;;;2.80;;
79064;SDS011;68469;51.502;7.462;2023-09-30T11:51:52;8.98;;;2.70;;
79064;SDS011;68469;51.502;7.462;2023-09-30T11:54:18;6.25;;;2.47;;
79064;SDS011;68469;51.502;7.462;2023-09-30T11:56:44;7.00;;;2.42;;
79064;SDS011;68469;51.502;7.462;2023-09-30T11:59:12;4.15;;;2.17;;
79064;SDS011;68469;51.502;7.462;2023-09-30T12:01:38;5.30;;;2.78;;
79064;SDS011;68469;51.502;7.462;2023-09-30T12:04:03;6.35;;;2.58;;
79064;SDS011;68469;51.502;7.462;2023-09-30T12:06:30;6.35;;;2.45;;
79064;SDS011;68469;51.502;7.462;2023-09-30T12:08:56;6.43;;;2.40;;
79064;SDS011;68469;51.502;7.462;2023-09-30T12:11:22;7.13;;;2.58;;
79064;SDS011;68469;51.502;7.462;2023-09-30T12:13:49;4.93;;;2.50;;
79064;SDS011;68469;51.502;7.462;2023-09-30T12:16:15;5.32;;;2.55;;
79064;SDS011;68469;51.502;7.462;2023-09-30T12:18:41;6.15;;;2.35;;
79064;SDS011;68469;51.502;7.462;2023-09-30T12:21:08;6.45;;;2.53;;
79064;SDS011;68469;51.502;7.462;2023-09-30T12:23:36;8.70;;;2.38;;
79064;SDS011;68469;51.502;7.462;2023-09-30T12:26:02;7.05;;;2.08;;
79064;SDS011;68469;51.502;7.462;2023-09-30T12:28:30;8.95;;;2.17;;
79064;SDS011;68469;51.502;7.462;2023-09-30T12:30:59;5.00;;;2.70;;
79064;SDS011;68469;51.502;7.462;2023-09-30T12:33:29;6.72;;;2.47;;
79064;SDS011;68469;51.502;7.462;2023-09-30T12:35:56;4.75;;;2.70;;
79064;SDS011;68469;51.502;7.462;2023-09-30T12:38:22;7.55;;;2.60;;
79064;SDS011;68469;51.502;7.462;2023-09-30T12:40:50;7.80;;;2.63;;
79064;SDS011;68469;51.502;7.462;2023-09-30T12:43:17;6.85;;;3.03;;
79064;SDS011;68469;51.502;7.462;2023-09-30T12:45:42;8.25;;;2.78;;
79064;SDS011;68469;51.502;7.462;2023-09-30T12:48:08;5.72;;;2.45;;
79064;SDS011;68469;51.502;7.462;2023-09-30T12:50:33;7.10;;;2.78;;
79064;SDS011;68469;51.502;7.462;2023-09-30T12:52:59;5.45;;;2.55;;
79064;SDS011;68469;51.502;7.462;2023-09-30T12:55:25;6.68;;;2.53;;
79064;SDS011;68469;51.502;7.462;2023-09-30T12:57:52;6.63;;;2.97;;
79064;SDS011;68469;51.502;7.462;2023-09-30T13:00:18;7.15;;;2.35;;
79064;SDS011;68469;51.502;7.462;2023-09-30T13:02:44;5.43;;;2.35;;
79064;SDS011;68469;51.502;7.462;2023-09-30T13:05:11;6.20;;;2.22;;
79064;SDS011;68469;51.502;7.462;2023-09-30T13:07:37;4.70;;;2.30;;
79064;SDS011;68469;51.502;7.462;2023-09-30T13:10:03;4.28;;;2.10;;
79064;SDS011;68469;51.502;7.462;2023-09-30T13:12:30;5.35;;;2.17;;
79064;SDS011;68469;51.502;7.462;2023-09-30T13:14:58;6.93;;;2.25;;
79064;SDS011;68469;51.502;7.462;2023-09-30T13:17:24;4.60;;;2.15;;
79064;SDS011;68469;51.502;7.462;2023-09-30T13:19:50;5.90;;;2.30;;
79064;SDS011;68469;51.502;7.462;2023-09-30T13:22:16;5.88;;;2.58;;
79064;SDS011;68469;51.502;7.462;2023-09-30T13:24:43;5.10;;;2.13;;
79064;SDS011;68469;51.502;7.462;2023-09-30T13:27:08;4.90;;;2.83;;
79064;SDS011;68469;51.502;7.462;2023-09-30T13:29:34;5.60;;;2.30;;
79064;SDS011;68469;51.502;7.462;2023-09-30T13:32:00;5.25;;;2.50;;
79064;SDS011;68469;51.502;7.462;2023-09-30T13:34:26;5.70;;;2.60;;
79064;SDS011;68469;51.502;7.462;2023-09-30T13:36:52;4.30;;;2.53;;
79064;SDS011;68469;51.502;7.462;2023-09-30T13:39:19;5.28;;;2.33;;
79064;SDS011;68469;51.502;7.462;2023-09-30T13:41:46;5.13;;;2.80;;
79064;SDS011;68469;51.502;7.462;2023-09-30T13:44:12;5.72;;;2.17;;
79064;SDS011;68469;51.502;7.462;2023-09-30T13:46:38;6.22;;;2.60;;
79064;SDS011;68469;51.502;7.462;2023-09-30T13:49:03;6.60;;;2.75;;
79064;SDS011;68469;51.502;7.462;2023-09-30T13:51:29;5.10;;;2.53;;
79064;SDS011;68469;51.502;7.462;2023-09-30T13:53:55;5.45;;;2.42;;
79064;SDS011;68469;51.502;7.462;2023-09-30T13:56:20;5.65;;;2.50;;
79064;SDS011;68469;51.502;7.462;2023-09-30T13:58:46;6.07;;;2.40;;
79064;SDS011;68469;51.502;7.462;2023-09-30T14:01:14;5.82;;;2.58;;
79064;SDS011;68469;51.502;7.462;2023-09-30T14:03:40;9.13;;;3.08;;
79064;SDS011;68469;51.502;7.462;2023-09-30T14:06:09;5.50;;;2.33;;
79064;SDS011;68469;51.502;7.462;2023-09-30T14:08:39;5.57;;;2.38;;
79064;SDS011;68469;51.502;7.462;2023-09-30T14:11:07;4.22;;;2.42;;
79064;SDS011;68469;51.502;7.462;2023-09-30T14:13:33;6.00;;;2.33;;
79064;SDS011;68469;51.502;7.462;2023-09-30T14:15:59;7.57;;;3.25;;
79064;SDS011;68469;51.502;7.462;2023-09-30T14:18:24;4.95;;;2.55;;
79064;SDS011;68469;51.502;7.462;2023-09-30T14:20:50;5.35;;;2.38;;
79064;SDS011;68469;51.502;7.462;2023-09-30T14:23:15;5.40;;;2.60;;
79064;SDS011;68469;51.502;7.462;2023-09-30T14:25:41;8.43;;;2.83;;
79064;SDS011;68469;51.502;7.462;2023-09-30T14:28:07;6.45;;;2.83;;
79064;SDS011;68469;51.502;7.462;2023-09-30T14:30:32;5.10;;;2.70;;
79064;SDS011;68469;51.502;7.462;2023-09-30T14:32:58;4.80;;;2.35;;
79064;SDS011;68469;51.502;7.462;2023-09-30T14:35:24;4.68;;;2.35;;
79064;SDS011;68469;51.502;7.462;2023-09-30T14:37:49;9.82;;;3.00;;
79064;SDS011;68469;51.502;7.462;2023-09-30T14:40:15;4.20;;;2.53;;
79064;SDS011;68469;51.502;7.462;2023-09-30T14:42:41;4.80;;;2.13;;
79064;SDS011;68469;51.502;7.462;2023-09-30T14:45:07;4.78;;;2.15;;
79064;SDS011;68469;51.502;7.462;2023-09-30T14:47:33;5.03;;;2.13;;
79064;SDS011;68469;51.502;7.462;2023-09-30T14:49:59;5.40;;;2.17;;
79064;SDS011;68469;51.502;7.462;2023-09-30T14:52:27;4.60;;;2.20;;
79064;SDS011;68469;51.502;7.462;2023-09-30T14:54:52;7.88;;;2.42;;
79064;SDS011;68469;51.502;7.462;2023-09-30T14:57:19;6.57;;;2.55;;
79064;SDS011;68469;51.502;7.462;2023-09-30T14:59:46;6.03;;;2.70;;
79064;SDS011;68469;51.502;7.462;2023-09-30T15:02:11;7.28;;;2.78;;
79064;SDS011;68469;51.502;7.462;2023-09-30T15:04:37;8.48;;;2.55;;
79064;SDS011;68469;51.502;7.462;2023-09-30T15:07:03;4.72;;;2.38;;